createdAt,value
2019-03-06T00:02:13.183Z,48.90
2019-03-06T00:04:42.951Z,48.90
2019-03-06T00:07:12.648Z,49.00
2019-03-06T00:09:42.403Z,48.70
2019-03-06T00:12:12.167Z,48.70
2019-03-06T00:14:42.176Z,48.70
2019-03-06T00:17:13.007Z,48.60
2019-03-06T00:19:42.711Z,48.60
2019-03-06T00:22:12.479Z,48.40
2019-03-06T00:24:42.160Z,48.30
2019-03-06T00:27:11.850Z,48.70
2019-03-06T00:29:41.602Z,48.70
2019-03-06T00:32:11.439Z,48.90
2019-03-06T00:34:42.087Z,48.80
2019-03-06T00:37:11.825Z,48.80
2019-03-06T00:39:48.963Z,49.10
2019-03-06T00:42:18.723Z,49.20
2019-03-06T00:44:48.411Z,50.70
2019-03-06T00:47:18.178Z,49.60
2019-03-06T00:49:47.859Z,49.70
2019-03-06T00:52:17.555Z,48.90
2019-03-06T00:54:47.231Z,49.10
2019-03-06T00:57:16.999Z,48.60
2019-03-06T00:59:46.949Z,48.80
2019-03-06T01:02:16.811Z,48.70
2019-03-06T01:04:46.567Z,48.70
2019-03-06T01:07:16.411Z,48.40
2019-03-06T01:09:46.091Z,48.70
2019-03-06T01:12:17.390Z,48.40
2019-03-06T01:14:47.145Z,48.40
2019-03-06T01:17:16.940Z,48.30
2019-03-06T01:19:46.623Z,48.30
2019-03-06T01:22:16.315Z,48.20
2019-03-06T01:24:46.066Z,48.40
2019-03-06T01:27:15.839Z,48.40
2019-03-06T01:29:45.593Z,48.20
2019-03-06T01:32:15.351Z,48.60
2019-03-06T01:35:03.039Z,48.80
2019-03-06T01:37:43.040Z,49.10
2019-03-06T01:40:21.284Z,49.20
2019-03-06T01:43:01.654Z,49.40
2019-03-06T01:45:31.503Z,49.80
2019-03-06T01:48:01.187Z,49.00
2019-03-06T01:50:31.046Z,49.40
2019-03-06T01:53:00.812Z,49.30
2019-03-06T01:55:30.642Z,49.30
2019-03-06T01:58:00.409Z,49.20
2019-03-06T02:00:30.318Z,49.30
2019-03-06T02:03:00.168Z,49.40
2019-03-06T02:05:30.433Z,49.50
2019-03-06T02:08:00.244Z,49.30
2019-03-06T02:10:30.771Z,49.10
2019-03-06T02:13:00.539Z,49.70
2019-03-06T02:15:30.367Z,49.80
2019-03-06T02:18:00.138Z,49.80
2019-03-06T02:20:29.892Z,50.30
2019-03-06T02:22:59.743Z,50.30
2019-03-06T02:25:29.781Z,50.30
2019-03-06T02:27:59.610Z,50.40
2019-03-06T02:30:29.440Z,50.80
2019-03-06T02:32:59.206Z,51.20
2019-03-06T02:35:28.960Z,51.00
2019-03-06T02:37:58.832Z,51.00
2019-03-06T02:40:28.587Z,51.40
2019-03-06T02:42:58.291Z,51.30
2019-03-06T02:45:28.049Z,50.90
2019-03-06T02:47:57.816Z,50.80
2019-03-06T02:50:27.777Z,51.30
2019-03-06T02:52:57.599Z,51.30
2019-03-06T02:55:27.352Z,51.40
2019-03-06T02:58:09.523Z,51.30
2019-03-06T03:01:05.411Z,51.60
2019-03-06T03:03:52.887Z,51.60
2019-03-06T03:06:33.460Z,51.70
2019-03-06T03:09:03.663Z,51.90
2019-03-06T03:11:35.035Z,51.90
2019-03-06T03:14:04.872Z,51.90
2019-03-06T03:16:34.702Z,52.00
2019-03-06T03:19:04.570Z,52.20
2019-03-06T03:21:35.305Z,52.60
2019-03-06T03:24:05.143Z,52.80
2019-03-06T03:26:35.176Z,52.80
2019-03-06T03:29:05.107Z,52.60
2019-03-06T03:31:34.796Z,52.90
2019-03-06T03:34:04.640Z,53.00
2019-03-06T03:36:34.406Z,53.00
2019-03-06T03:39:06.318Z,53.10
2019-03-06T03:41:37.144Z,53.50
2019-03-06T03:44:06.856Z,53.60
2019-03-06T03:46:36.700Z,53.40
2019-03-06T03:49:06.461Z,53.40
2019-03-06T03:51:36.320Z,53.40
2019-03-06T03:54:06.170Z,53.40
2019-03-06T03:56:36.000Z,53.40
2019-03-06T03:59:05.879Z,53.40
2019-03-06T04:01:35.716Z,53.50
2019-03-06T04:04:05.571Z,53.50
2019-03-06T04:06:35.408Z,53.70
2019-03-06T04:09:06.446Z,53.70
2019-03-06T04:11:36.396Z,54.00
2019-03-06T04:14:06.223Z,53.80
2019-03-06T04:16:35.912Z,53.90
2019-03-06T04:19:05.752Z,53.90
2019-03-06T04:21:35.520Z,53.90
2019-03-06T04:24:05.363Z,53.80
2019-03-06T04:26:35.035Z,54.00
2019-03-06T04:29:04.804Z,53.80
2019-03-06T04:31:34.641Z,54.10
2019-03-06T04:34:04.487Z,54.00
2019-03-06T04:36:34.195Z,53.90
2019-03-06T04:39:04.807Z,54.10
2019-03-06T04:41:34.635Z,54.20
2019-03-06T04:44:04.398Z,54.10
2019-03-06T04:46:34.145Z,53.90
2019-03-06T04:49:03.902Z,53.80
2019-03-06T04:51:33.866Z,53.70
2019-03-06T04:54:03.554Z,53.80
2019-03-06T04:56:33.294Z,54.10
2019-03-06T04:59:03.064Z,54.10
2019-03-06T05:01:32.759Z,54.00
2019-03-06T05:04:02.614Z,54.20
2019-03-06T05:06:32.364Z,54.50
2019-03-06T05:09:02.048Z,55.10
2019-03-06T05:11:33.355Z,54.90
2019-03-06T05:14:03.116Z,54.80
2019-03-06T05:17:00.983Z,55.00
2019-03-06T05:19:30.691Z,54.10
2019-03-06T05:22:00.371Z,54.10
2019-03-06T05:24:30.067Z,54.10
2019-03-06T05:26:59.746Z,53.90
2019-03-06T05:29:29.435Z,53.90
2019-03-06T05:32:35.598Z,53.80
2019-03-06T05:35:44.067Z,53.90
2019-03-06T05:38:29.694Z,53.80
2019-03-06T05:40:59.386Z,53.90
2019-03-06T05:43:29.066Z,53.90
2019-03-06T05:45:58.915Z,53.50
2019-03-06T05:48:28.601Z,53.70
2019-03-06T05:50:58.302Z,53.70
2019-03-06T05:53:27.983Z,53.50
2019-03-06T05:55:57.923Z,53.60
2019-03-06T05:58:27.603Z,53.60
2019-03-06T06:00:57.299Z,53.30
2019-03-06T06:03:26.987Z,53.90
2019-03-06T06:05:56.688Z,53.90
2019-03-06T06:08:26.371Z,54.20
2019-03-06T06:10:56.134Z,54.10
2019-03-06T06:13:25.846Z,53.90
2019-03-06T06:15:55.551Z,53.70
2019-03-06T06:18:25.254Z,54.10
2019-03-06T06:21:15.940Z,53.90
2019-03-06T06:23:49.067Z,53.90
2019-03-06T06:26:18.835Z,53.80
2019-03-06T06:28:48.519Z,53.80
2019-03-06T06:31:18.211Z,53.70
2019-03-06T06:33:47.907Z,53.80
2019-03-06T06:36:17.662Z,53.70
2019-03-06T06:38:47.692Z,53.90
2019-03-06T06:41:17.386Z,54.10
2019-03-06T06:43:47.067Z,54.20
2019-03-06T06:46:16.835Z,53.90
2019-03-06T06:48:46.566Z,53.90
2019-03-06T06:51:41.511Z,54.30
2019-03-06T06:54:17.236Z,54.40
2019-03-06T06:57:37.138Z,54.30
2019-03-06T07:00:49.439Z,53.90
2019-03-06T07:04:12.666Z,53.70
2019-03-06T07:06:53.372Z,53.80
2019-03-06T07:09:35.403Z,54.00
2019-03-06T07:12:16.596Z,54.00
2019-03-06T07:15:17.334Z,53.80
2019-03-06T07:18:00.060Z,53.70
2019-03-06T07:20:55.298Z,53.40
2019-03-06T07:23:42.508Z,53.50
2019-03-06T07:26:35.616Z,53.40
2019-03-06T07:29:27.227Z,53.50
2019-03-06T07:32:06.206Z,53.40
2019-03-06T07:34:57.826Z,53.20
2019-03-06T07:37:38.747Z,53.20
2019-03-06T07:40:17.998Z,53.60
2019-03-06T07:43:10.070Z,54.20
2019-03-06T07:46:00.271Z,54.80
2019-03-06T07:48:58.169Z,54.10
2019-03-06T07:51:51.611Z,53.80
2019-03-06T07:54:43.316Z,54.30
2019-03-06T07:57:38.238Z,54.00
2019-03-06T08:00:13.211Z,53.70
2019-03-06T08:03:02.371Z,53.30
2019-03-06T08:05:33.367Z,53.70
2019-03-06T08:08:03.063Z,53.50
2019-03-06T08:10:35.151Z,53.20
2019-03-06T08:13:10.435Z,53.30
2019-03-06T08:15:59.178Z,53.20
2019-03-06T08:18:36.720Z,53.00
2019-03-06T08:21:29.663Z,52.80
2019-03-06T08:24:18.074Z,52.60
2019-03-06T08:26:47.845Z,52.70
2019-03-06T08:29:17.593Z,52.70
2019-03-06T08:31:51.114Z,52.60
2019-03-06T08:34:20.918Z,52.50
2019-03-06T08:36:50.795Z,52.30
2019-03-06T08:39:24.009Z,52.10
2019-03-06T08:41:53.846Z,52.00
2019-03-06T08:44:23.619Z,52.00
2019-03-06T08:47:27.651Z,52.20
2019-03-06T08:50:07.373Z,52.20
2019-03-06T08:52:51.752Z,51.90
2019-03-06T08:55:40.268Z,51.70
2019-03-06T08:58:30.787Z,51.80
2019-03-06T09:01:37.432Z,51.90
2019-03-06T09:04:25.284Z,52.10
2019-03-06T09:07:17.280Z,51.80
2019-03-06T09:10:15.071Z,51.70
2019-03-06T09:13:03.923Z,51.90
2019-03-06T09:15:55.467Z,54.30
2019-03-06T09:18:59.490Z,55.20
2019-03-06T09:21:48.268Z,54.50
2019-03-06T09:24:37.056Z,53.80
2019-03-06T09:27:26.160Z,53.70
2019-03-06T09:30:19.617Z,53.50
2019-03-06T09:32:56.648Z,53.20
2019-03-06T09:35:48.321Z,52.70
2019-03-06T09:38:30.075Z,51.90
2019-03-06T09:41:14.066Z,52.20
2019-03-06T09:44:04.548Z,52.30
2019-03-06T09:47:02.271Z,51.90
2019-03-06T09:49:49.703Z,51.50
2019-03-06T09:52:41.060Z,51.40
2019-03-06T09:55:32.776Z,51.10
2019-03-06T09:58:14.338Z,50.50
2019-03-06T10:01:21.067Z,50.20
2019-03-06T10:04:08.219Z,49.90
2019-03-06T10:06:59.547Z,49.90
2019-03-06T10:09:34.679Z,49.80
2019-03-06T10:12:26.606Z,49.90
2019-03-06T10:15:08.185Z,49.60
2019-03-06T10:17:48.229Z,49.10
2019-03-06T10:20:25.145Z,48.90
2019-03-06T10:22:51.820Z,49.50
2019-03-06T10:25:29.797Z,49.10
2019-03-06T10:27:53.224Z,48.30
2019-03-06T10:30:23.038Z,47.60
2019-03-06T10:32:53.194Z,46.60
2019-03-06T10:35:23.098Z,47.40
2019-03-06T10:37:53.217Z,45.90
2019-03-06T10:40:22.987Z,46.40
2019-03-06T10:42:52.966Z,46.70
2019-03-06T10:45:22.808Z,46.00
2019-03-06T10:47:52.831Z,46.20
2019-03-06T10:50:26.896Z,45.80
2019-03-06T10:52:54.262Z,46.50
2019-03-06T10:55:24.194Z,46.20
2019-03-06T10:57:54.312Z,46.30
2019-03-06T11:00:27.759Z,46.70
2019-03-06T11:02:57.964Z,46.20
2019-03-06T11:05:32.086Z,45.60
2019-03-06T11:08:02.837Z,46.70
2019-03-06T11:10:33.993Z,46.80
2019-03-06T11:13:09.170Z,46.20
2019-03-06T11:15:39.727Z,45.90
2019-03-06T11:18:09.876Z,46.30
2019-03-06T11:20:40.833Z,46.70
2019-03-06T11:23:11.245Z,46.10
2019-03-06T11:25:41.504Z,45.80
2019-03-06T11:28:11.767Z,45.30
2019-03-06T11:30:45.539Z,45.10
2019-03-06T11:33:15.793Z,45.40
2019-03-06T11:35:45.955Z,45.70
2019-03-06T11:38:16.266Z,45.10
2019-03-06T11:40:46.198Z,44.50
2019-03-06T11:43:16.111Z,44.70
2019-03-06T11:45:45.870Z,44.70
2019-03-06T11:48:15.706Z,44.60
2019-03-06T11:50:45.759Z,45.00
2019-03-06T11:53:15.604Z,45.10
2019-03-06T11:55:45.368Z,45.20
2019-03-06T11:58:17.120Z,44.40
2019-03-06T12:00:47.388Z,44.50
2019-03-06T12:03:19.226Z,45.30
2019-03-06T12:05:49.638Z,44.40
2019-03-06T12:08:19.593Z,45.20
2019-03-06T12:10:50.459Z,44.60
2019-03-06T12:13:20.460Z,45.30
2019-03-06T12:15:50.985Z,45.00
2019-03-06T12:18:22.465Z,45.20
2019-03-06T12:20:52.782Z,44.50
2019-03-06T12:23:22.695Z,44.60
2019-03-06T12:25:53.583Z,44.00
2019-03-06T12:28:23.364Z,44.50
2019-03-06T12:30:54.899Z,43.50
2019-03-06T12:33:30.485Z,44.10
2019-03-06T12:36:00.645Z,43.90
2019-03-06T12:38:30.954Z,45.10
2019-03-06T12:41:03.763Z,44.90
2019-03-06T12:43:34.182Z,44.50
2019-03-06T12:46:26.230Z,45.20
2019-03-06T12:49:00.891Z,44.10
2019-03-06T12:51:31.342Z,44.40
2019-03-06T12:54:01.298Z,45.00
2019-03-06T12:56:31.192Z,44.40
2019-03-06T12:59:00.958Z,44.40
2019-03-06T13:01:31.043Z,44.20
2019-03-06T13:04:01.211Z,43.80
2019-03-06T13:06:30.967Z,44.30
2019-03-06T13:09:01.643Z,43.80
2019-03-06T13:11:33.162Z,44.10
2019-03-06T13:14:02.983Z,44.80
2019-03-06T13:16:32.791Z,44.40
2019-03-06T13:19:02.923Z,44.70
2019-03-06T13:21:32.695Z,45.40
2019-03-06T13:24:03.694Z,44.60
2019-03-06T13:26:33.530Z,44.10
2019-03-06T13:29:03.431Z,43.50
2019-03-06T13:31:33.662Z,43.90
2019-03-06T13:34:20.959Z,44.80
2019-03-06T13:36:50.911Z,46.80
2019-03-06T13:39:21.575Z,46.40
2019-03-06T13:41:51.438Z,45.60
2019-03-06T13:44:21.200Z,45.80
2019-03-06T13:46:51.036Z,45.80
2019-03-06T13:49:20.798Z,45.30
2019-03-06T13:51:50.569Z,45.10
2019-03-06T13:54:20.395Z,45.00
2019-03-06T13:56:51.836Z,45.40
2019-03-06T13:59:21.655Z,45.30
2019-03-06T14:01:51.446Z,45.60
2019-03-06T14:04:21.231Z,45.90
2019-03-06T14:06:50.932Z,46.20
2019-03-06T14:09:20.649Z,46.00
2019-03-06T14:11:50.603Z,45.40
2019-03-06T14:14:20.436Z,46.00
2019-03-06T14:16:50.217Z,45.50
2019-03-06T14:19:20.160Z,45.20
2019-03-06T14:21:49.954Z,44.90
2019-03-06T14:24:20.098Z,45.50
2019-03-06T14:26:49.879Z,46.30
2019-03-06T14:29:19.706Z,46.20
2019-03-06T14:31:49.562Z,45.50
2019-03-06T14:34:19.442Z,45.60
2019-03-06T14:36:49.167Z,45.40
2019-03-06T14:39:27.335Z,45.50
2019-03-06T14:41:58.331Z,45.30
2019-03-06T14:44:28.094Z,45.80
2019-03-06T14:46:57.946Z,45.50
2019-03-06T14:49:27.798Z,45.30
2019-03-06T14:52:06.685Z,45.00
2019-03-06T14:54:29.103Z,45.40
2019-03-06T14:56:58.899Z,45.20
2019-03-06T14:59:28.738Z,45.80
2019-03-06T15:01:59.487Z,45.40
2019-03-06T15:04:29.471Z,45.60
2019-03-06T15:06:59.523Z,45.50
2019-03-06T15:09:29.320Z,44.00
2019-03-06T15:11:59.158Z,45.60
2019-03-06T15:14:35.759Z,45.40
2019-03-06T15:17:00.483Z,45.60
2019-03-06T15:19:30.307Z,44.90
2019-03-06T15:22:02.167Z,45.60
2019-03-06T15:24:40.958Z,45.90
2019-03-06T15:27:04.194Z,44.60
2019-03-06T15:29:33.887Z,45.40
2019-03-06T15:32:03.674Z,45.40
2019-03-06T15:34:33.505Z,46.60
2019-03-06T15:37:03.395Z,45.90
2019-03-06T15:39:42.848Z,46.50
2019-03-06T15:42:10.778Z,47.40
2019-03-06T15:44:40.630Z,47.30
2019-03-06T15:47:10.564Z,47.20
2019-03-06T15:49:40.338Z,48.10
2019-03-06T15:52:10.741Z,48.10
2019-03-06T15:54:40.592Z,48.30
2019-03-06T15:57:10.437Z,48.40
2019-03-06T15:59:40.436Z,48.50
2019-03-06T16:02:10.375Z,48.50
2019-03-06T16:04:40.203Z,48.20
2019-03-06T16:07:11.010Z,48.70
2019-03-06T16:09:40.951Z,48.50
2019-03-06T16:12:12.297Z,48.30
2019-03-06T16:14:42.438Z,48.30
2019-03-06T16:17:12.204Z,49.10
2019-03-06T16:19:41.958Z,48.80
2019-03-06T16:22:14.160Z,48.00
2019-03-06T16:24:43.906Z,48.70
2019-03-06T16:27:13.754Z,48.30
2019-03-06T16:29:43.549Z,48.00
2019-03-06T16:32:13.552Z,47.90
2019-03-06T16:34:43.319Z,48.20
2019-03-06T16:37:13.196Z,48.40
2019-03-06T16:39:42.959Z,48.00
2019-03-06T16:42:12.827Z,48.00
2019-03-06T16:44:42.698Z,48.30
2019-03-06T16:47:12.528Z,48.20
2019-03-06T16:49:42.577Z,47.80
2019-03-06T16:52:13.145Z,48.10
2019-03-06T16:54:43.035Z,47.80
2019-03-06T16:57:12.830Z,47.90
2019-03-06T16:59:42.663Z,48.00
2019-03-06T17:02:12.795Z,47.90
2019-03-06T17:04:42.632Z,48.30
2019-03-06T17:07:12.600Z,48.40
2019-03-06T17:09:42.356Z,48.10
2019-03-06T17:12:12.123Z,48.50
2019-03-06T17:14:41.879Z,48.10
2019-03-06T17:17:11.741Z,48.10
2019-03-06T17:19:42.651Z,48.10
2019-03-06T17:22:12.603Z,48.20
2019-03-06T17:24:42.358Z,47.80
2019-03-06T17:27:12.303Z,48.40
2019-03-06T17:29:42.281Z,49.00
2019-03-06T17:32:12.492Z,49.00
2019-03-06T17:34:42.183Z,49.80
2019-03-06T17:37:12.003Z,49.40
2019-03-06T17:39:41.860Z,48.90
2019-03-06T17:42:11.937Z,49.30
2019-03-06T17:44:41.868Z,48.50
2019-03-06T17:47:12.784Z,48.90
2019-03-06T17:49:42.627Z,49.20
2019-03-06T17:52:12.491Z,49.10
2019-03-06T17:54:42.275Z,48.90
2019-03-06T17:57:12.180Z,49.20
2019-03-06T17:59:43.286Z,49.80
2019-03-06T18:02:13.374Z,49.30
2019-03-06T18:04:43.051Z,49.00
2019-03-06T18:07:12.987Z,49.40
2019-03-06T18:09:42.743Z,50.60
2019-03-06T18:12:12.593Z,50.30
2019-03-06T18:14:42.368Z,50.00
2019-03-06T18:17:12.138Z,49.50
2019-03-06T18:19:41.997Z,49.70
2019-03-06T18:22:11.911Z,49.70
2019-03-06T18:24:41.931Z,49.70
2019-03-06T18:27:11.774Z,50.70
2019-03-06T18:29:41.475Z,50.50
2019-03-06T18:32:11.410Z,51.20
2019-03-06T18:34:41.126Z,51.30
2019-03-06T18:37:10.900Z,51.40
2019-03-06T18:39:40.923Z,51.10
2019-03-06T18:42:10.835Z,50.40
2019-03-06T18:44:40.537Z,51.00
2019-03-06T18:47:10.287Z,50.80
2019-03-06T18:49:40.049Z,51.70
2019-03-06T18:52:09.929Z,52.00
2019-03-06T18:54:39.741Z,51.90
2019-03-06T18:57:09.598Z,51.90
2019-03-06T18:59:39.367Z,51.60
2019-03-06T19:02:09.252Z,52.10
2019-03-06T19:04:39.094Z,51.70
2019-03-06T19:07:09.194Z,52.20
2019-03-06T19:09:38.959Z,52.20
2019-03-06T19:12:08.796Z,52.70
2019-03-06T19:14:38.579Z,52.90
2019-03-06T19:17:08.419Z,52.60
2019-03-06T19:19:38.115Z,53.20
2019-03-06T19:22:08.221Z,53.30
2019-03-06T19:24:38.051Z,53.10
2019-03-06T19:27:07.879Z,53.50
2019-03-06T19:29:38.539Z,53.20
2019-03-06T19:32:08.371Z,53.30
2019-03-06T19:34:38.135Z,53.40
2019-03-06T19:37:08.855Z,53.50
2019-03-06T19:39:38.557Z,53.10
2019-03-06T19:42:08.450Z,53.10
2019-03-06T19:44:38.291Z,53.30
2019-03-06T19:47:08.063Z,53.40
2019-03-06T19:49:39.148Z,53.10
2019-03-06T19:52:09.031Z,53.20
2019-03-06T19:54:38.796Z,53.30
2019-03-06T19:57:08.560Z,53.60
2019-03-06T19:59:38.261Z,53.70
2019-03-06T20:02:08.359Z,54.20
2019-03-06T20:04:38.451Z,54.20
2019-03-06T20:07:08.288Z,53.90
2019-03-06T20:09:38.217Z,53.70
2019-03-06T20:12:08.737Z,53.60
2019-03-06T20:14:38.602Z,53.70
2019-03-06T20:17:08.441Z,53.60
2019-03-06T20:19:38.287Z,54.40
2019-03-06T20:22:07.972Z,54.40
2019-03-06T20:24:37.891Z,54.00
2019-03-06T20:27:07.651Z,54.60
2019-03-06T20:29:37.438Z,54.30
2019-03-06T20:32:07.276Z,54.70
2019-03-06T20:34:36.968Z,54.60
2019-03-06T20:37:06.727Z,54.80
2019-03-06T20:39:36.415Z,55.00
2019-03-06T20:42:06.251Z,55.00
2019-03-06T20:44:35.950Z,55.10
2019-03-06T20:47:05.710Z,55.10
2019-03-06T20:49:35.427Z,54.80
2019-03-06T20:52:05.179Z,55.40
2019-03-06T20:54:34.939Z,55.40
2019-03-06T20:57:04.762Z,55.90
2019-03-06T20:59:34.568Z,56.40
2019-03-06T21:02:04.399Z,56.00
2019-03-06T21:04:34.166Z,56.10
2019-03-06T21:07:04.025Z,56.20
2019-03-06T21:09:33.780Z,55.90
2019-03-06T21:12:03.458Z,56.10
2019-03-06T21:14:33.155Z,55.80
2019-03-06T21:17:02.907Z,56.00
2019-03-06T21:19:32.667Z,56.20
2019-03-06T21:22:02.430Z,56.80
2019-03-06T21:24:32.132Z,57.30
2019-03-06T21:27:02.711Z,57.40
2019-03-06T21:29:32.578Z,57.80
2019-03-06T21:32:02.275Z,57.90
2019-03-06T21:34:32.046Z,58.30
2019-03-06T21:37:01.923Z,58.20
2019-03-06T21:39:31.811Z,57.60
2019-03-06T21:42:01.509Z,57.90
2019-03-06T21:44:31.208Z,57.30
2019-03-06T21:47:00.887Z,58.10
2019-03-06T21:49:31.551Z,57.50
2019-03-06T21:52:01.511Z,57.50
2019-03-06T21:54:31.276Z,57.40
2019-03-06T21:57:00.970Z,57.60
2019-03-06T21:59:30.679Z,57.50
2019-03-06T22:02:01.475Z,57.00
2019-03-06T22:04:33.243Z,56.90
2019-03-06T22:07:02.628Z,57.30
2019-03-06T22:09:32.332Z,58.20
2019-03-06T22:12:02.015Z,57.50
2019-03-06T22:14:31.860Z,57.20
2019-03-06T22:17:01.531Z,57.00
2019-03-06T22:19:31.680Z,57.00
2019-03-06T22:22:01.552Z,57.30
2019-03-06T22:24:31.269Z,57.10
2019-03-06T22:27:01.091Z,57.30
2019-03-06T22:29:30.779Z,57.10
2019-03-06T22:32:00.527Z,57.40
2019-03-06T22:34:30.436Z,57.10
2019-03-06T22:37:00.192Z,56.90
2019-03-06T22:39:29.934Z,56.60
2019-03-06T22:41:59.680Z,57.10
2019-03-06T22:44:29.355Z,57.60
2019-03-06T22:46:59.127Z,57.20
2019-03-06T22:49:29.023Z,56.70
2019-03-06T22:51:58.783Z,56.80
2019-03-06T22:54:28.544Z,56.70
2019-03-06T22:56:58.923Z,56.70
2019-03-06T22:59:28.606Z,56.60
2019-03-06T23:01:58.724Z,56.30
2019-03-06T23:04:28.483Z,56.20
2019-03-06T23:06:58.324Z,56.80
2019-03-06T23:09:28.090Z,56.40
2019-03-06T23:11:57.782Z,56.20
2019-03-06T23:14:27.530Z,56.00
2019-03-06T23:16:57.379Z,56.00
2019-03-06T23:19:27.067Z,56.00
2019-03-06T23:21:56.827Z,56.30
2019-03-06T23:24:26.509Z,56.30
2019-03-06T23:26:56.199Z,56.40
2019-03-06T23:29:26.051Z,56.30
2019-03-06T23:31:55.824Z,56.60
2019-03-06T23:34:25.510Z,56.40
2019-03-06T23:36:55.347Z,56.20
2019-03-06T23:39:25.022Z,56.70
2019-03-06T23:41:54.718Z,56.50
2019-03-06T23:44:24.411Z,56.50
2019-03-06T23:46:54.184Z,56.50
2019-03-06T23:49:23.935Z,56.60
2019-03-06T23:51:58.690Z,56.60
2019-03-06T23:54:28.519Z,56.70
2019-03-06T23:56:58.310Z,56.20
2019-03-06T23:59:28.073Z,56.50
